createdAt,value
2023-02-18T00:00:58.599Z,78.65
2023-02-18T00:01:58.744Z,78.55
2023-02-18T00:02:58.900Z,78.55
2023-02-18T00:03:59.035Z,78.55
2023-02-18T00:04:59.194Z,78.75
2023-02-18T00:05:59.363Z,78.86
2023-02-18T00:06:59.534Z,79.06
2023-02-18T00:07:59.705Z,79.06
2023-02-18T00:08:59.880Z,79.16
2023-02-18T00:10:00.082Z,79.37
2023-02-18T00:11:00.255Z,79.37
2023-02-18T00:12:00.437Z,79.37
2023-02-18T00:13:00.613Z,79.47
2023-02-18T00:14:00.686Z,79.37
2023-02-18T00:15:00.828Z,79.41
2023-02-18T00:16:01.040Z,79.47
2023-02-18T00:17:01.104Z,79.61
2023-02-18T00:18:01.244Z,79.72
2023-02-18T00:19:01.420Z,79.72
2023-02-18T00:20:01.537Z,79.82
2023-02-18T00:21:01.687Z,80.02
2023-02-18T00:22:01.820Z,79.93
2023-02-18T00:23:01.989Z,80.02
2023-02-18T00:24:02.144Z,80.02
2023-02-18T00:25:02.288Z,80.23
2023-02-18T00:26:02.417Z,80.23
2023-02-18T00:27:02.575Z,80.13
2023-02-18T00:28:02.735Z,80.23
2023-02-18T00:29:02.863Z,80.44
2023-02-18T00:30:03.071Z,80.33
2023-02-18T00:31:03.181Z,80.33
2023-02-18T00:32:03.417Z,80.23
2023-02-18T00:33:03.377Z,80.54
2023-02-18T00:34:03.530Z,80.79
2023-02-18T00:35:03.671Z,80.79
2023-02-18T00:36:03.810Z,80.79
2023-02-18T00:37:03.991Z,80.99
2023-02-18T00:38:04.155Z,80.79
2023-02-18T00:39:04.299Z,80.79
2023-02-18T00:40:04.477Z,80.68
2023-02-18T00:41:04.643Z,80.58
2023-02-18T00:42:04.773Z,80.68
2023-02-18T00:43:04.961Z,80.68
2023-02-18T00:44:05.101Z,80.79
2023-02-18T00:45:05.265Z,80.89
2023-02-18T00:46:05.734Z,80.89
2023-02-18T00:47:05.530Z,80.99
2023-02-18T00:48:05.684Z,80.99
2023-02-18T00:49:05.835Z,81.40
2023-02-18T00:50:05.999Z,80.89
2023-02-18T00:51:06.162Z,81.03
2023-02-18T00:52:06.312Z,80.93
2023-02-18T00:53:06.489Z,81.03
2023-02-18T00:54:06.636Z,81.34
2023-02-18T00:55:06.817Z,81.13
2023-02-18T00:56:07.367Z,81.13
2023-02-18T00:57:07.158Z,80.93
2023-02-18T00:58:07.330Z,81.03
2023-02-18T00:59:07.499Z,81.13
2023-02-18T01:00:07.659Z,81.34
2023-02-18T01:01:07.893Z,81.34
2023-02-18T01:02:07.930Z,81.54
2023-02-18T01:03:08.103Z,81.34
2023-02-18T01:04:08.249Z,81.23
2023-02-18T01:05:08.422Z,81.23
2023-02-18T01:06:08.881Z,81.34
2023-02-18T01:07:08.731Z,81.34
2023-02-18T01:08:08.898Z,81.23
2023-02-18T01:09:09.049Z,81.23
2023-02-18T01:10:09.199Z,81.13
2023-02-18T01:11:09.374Z,81.03
2023-02-18T01:12:09.538Z,81.13
2023-02-18T01:13:09.734Z,81.13
2023-02-18T01:14:09.900Z,81.23
2023-02-18T01:15:10.056Z,81.23
2023-02-18T01:16:10.630Z,81.03
2023-02-18T01:17:10.346Z,81.13
2023-02-18T01:18:10.535Z,81.37
2023-02-18T01:19:10.802Z,81.37
2023-02-18T01:20:10.848Z,81.37
2023-02-18T01:21:11.024Z,81.37
2023-02-18T01:22:11.157Z,81.27
2023-02-18T01:23:11.303Z,81.37
2023-02-18T01:24:11.449Z,81.48
2023-02-18T01:25:11.612Z,81.58
2023-02-18T01:26:11.838Z,81.48
2023-02-18T01:27:11.955Z,81.37
2023-02-18T01:28:12.133Z,81.37
2023-02-18T01:29:12.281Z,81.58
2023-02-18T01:30:12.476Z,81.27
2023-02-18T01:31:12.710Z,81.37
2023-02-18T01:32:12.877Z,81.27
2023-02-18T01:33:12.849Z,81.27
2023-02-18T01:34:12.988Z,81.37
2023-02-18T01:35:13.146Z,81.37
2023-02-18T01:36:13.385Z,81.58
2023-02-18T01:37:13.434Z,81.48
2023-02-18T01:38:13.589Z,81.68
2023-02-18T01:39:13.754Z,81.79
2023-02-18T01:40:13.907Z,81.68
2023-02-18T01:41:14.064Z,81.48
2023-02-18T01:42:14.218Z,81.68
2023-02-18T01:43:14.392Z,81.48
2023-02-18T01:44:14.549Z,81.37
2023-02-18T01:45:14.736Z,81.48
2023-02-18T01:46:14.965Z,81.58
2023-02-18T01:47:15.116Z,81.58
2023-02-18T01:48:15.303Z,81.37
2023-02-18T01:49:15.449Z,81.58
2023-02-18T01:50:15.594Z,81.48
2023-02-18T01:51:15.757Z,81.58
2023-02-18T01:52:15.930Z,81.68
2023-02-18T01:53:16.092Z,81.37
2023-02-18T01:54:16.240Z,81.48
2023-02-18T01:55:16.400Z,81.58
2023-02-18T01:56:16.545Z,81.68
2023-02-18T01:57:16.704Z,81.68
2023-02-18T01:58:16.873Z,81.89
2023-02-18T01:59:17.027Z,81.89
2023-02-18T02:00:17.179Z,81.79
2023-02-18T02:01:17.323Z,81.79
2023-02-18T02:02:17.466Z,81.68
2023-02-18T02:03:17.632Z,81.58
2023-02-18T02:04:17.772Z,81.58
2023-02-18T02:05:17.928Z,81.68
2023-02-18T02:06:18.080Z,81.79
2023-02-18T02:07:18.290Z,81.58
2023-02-18T02:08:18.427Z,81.37
2023-02-18T02:09:18.578Z,81.37
2023-02-18T02:10:18.720Z,81.37
2023-02-18T02:11:18.877Z,81.58
2023-02-18T02:12:19.018Z,81.58
2023-02-18T02:13:19.211Z,81.48
2023-02-18T02:14:19.362Z,81.58
2023-02-18T02:15:19.526Z,81.58
2023-02-18T02:16:19.704Z,81.37
2023-02-18T02:17:19.857Z,81.37
2023-02-18T02:18:20.027Z,81.58
2023-02-18T02:19:20.183Z,81.58
2023-02-18T02:20:20.370Z,81.68
2023-02-18T02:21:20.511Z,81.58
2023-02-18T02:22:20.664Z,81.68
2023-02-18T02:23:20.838Z,81.68
2023-02-18T02:24:20.994Z,81.58
2023-02-18T02:25:21.152Z,81.37
2023-02-18T02:26:21.305Z,81.27
2023-02-18T02:27:21.483Z,81.27
2023-02-18T02:28:21.631Z,81.37
2023-02-18T02:29:21.791Z,81.48
2023-02-18T02:30:21.984Z,81.48
2023-02-18T02:31:22.167Z,81.48
2023-02-18T02:32:22.328Z,81.58
2023-02-18T02:33:22.502Z,81.58
2023-02-18T02:34:22.655Z,81.48
2023-02-18T02:35:22.822Z,81.48
2023-02-18T02:36:22.970Z,81.58
2023-02-18T02:37:23.128Z,81.68
2023-02-18T02:38:23.296Z,81.58
2023-02-18T02:39:23.464Z,81.79
2023-02-18T02:40:23.705Z,81.89
2023-02-18T02:41:23.814Z,81.89
2023-02-18T02:42:23.949Z,82.03
2023-02-18T02:43:24.127Z,82.03
2023-02-18T02:44:24.288Z,81.82
2023-02-18T02:45:24.489Z,81.93
2023-02-18T02:46:24.651Z,81.72
2023-02-18T02:47:24.803Z,81.62
2023-02-18T02:48:24.977Z,81.48
2023-02-18T02:49:25.132Z,81.48
2023-02-18T02:50:25.290Z,81.48
2023-02-18T02:51:25.450Z,81.48
2023-02-18T02:52:33.634Z,81.62
2023-02-18T02:53:25.762Z,81.62
2023-02-18T02:54:25.949Z,81.37
2023-02-18T02:55:26.098Z,81.07
2023-02-18T02:56:26.250Z,80.96
2023-02-18T02:57:26.396Z,81.07
2023-02-18T02:58:26.580Z,81.07
2023-02-18T02:59:26.744Z,81.07
2023-02-18T03:00:26.895Z,80.96
2023-02-18T03:01:27.046Z,81.07
2023-02-18T03:02:27.221Z,81.07
2023-02-18T03:03:27.421Z,81.10
2023-02-18T03:04:27.590Z,81.10
2023-02-18T03:05:27.762Z,81.00
2023-02-18T03:06:27.927Z,81.21
2023-02-18T03:07:28.077Z,81.00
2023-02-18T03:08:28.256Z,80.79
2023-02-18T03:09:28.404Z,80.55
2023-02-18T03:10:28.561Z,80.55
2023-02-18T03:11:28.706Z,80.65
2023-02-18T03:12:28.869Z,80.69
2023-02-18T03:13:29.039Z,80.79
2023-02-18T03:14:29.201Z,80.69
2023-02-18T03:15:29.355Z,80.48
2023-02-18T03:16:29.531Z,80.69
2023-02-18T03:17:29.682Z,80.58
2023-02-18T03:18:29.867Z,80.79
2023-02-18T03:19:30.043Z,80.58
2023-02-18T03:20:30.173Z,80.48
2023-02-18T03:21:30.326Z,80.58
2023-02-18T03:22:30.477Z,80.38
2023-02-18T03:23:30.645Z,80.58
2023-02-18T03:24:30.807Z,80.58
2023-02-18T03:25:30.956Z,80.58
2023-02-18T03:26:31.113Z,80.69
2023-02-18T03:27:31.238Z,80.58
2023-02-18T03:28:31.412Z,80.48
2023-02-18T03:29:31.559Z,80.38
2023-02-18T03:30:31.811Z,80.28
2023-02-18T03:31:31.938Z,80.18
2023-02-18T03:32:32.070Z,80.28
2023-02-18T03:33:37.266Z,79.86
2023-02-18T03:34:32.418Z,79.62
2023-02-18T03:35:32.575Z,79.62
2023-02-18T03:36:32.746Z,79.41
2023-02-18T03:37:32.887Z,79.21
2023-02-18T03:38:33.054Z,79.21
2023-02-18T03:39:33.213Z,79.21
2023-02-18T03:40:33.372Z,79.11
2023-02-18T03:41:33.534Z,78.90
2023-02-18T03:42:33.687Z,79.00
2023-02-18T03:43:33.838Z,79.31
2023-02-18T03:44:34.003Z,79.11
2023-02-18T03:45:34.150Z,79.00
2023-02-18T03:46:34.307Z,79.00
2023-02-18T03:47:34.452Z,78.80
2023-02-18T03:48:34.617Z,78.80
2023-02-18T03:49:34.768Z,78.80
2023-02-18T03:50:34.927Z,78.94
2023-02-18T03:51:35.066Z,78.73
2023-02-18T03:52:35.215Z,78.69
2023-02-18T03:53:35.358Z,78.49
2023-02-18T03:54:35.517Z,78.59
2023-02-18T03:55:35.668Z,78.83
2023-02-18T03:56:35.835Z,78.94
2023-02-18T03:57:35.978Z,78.94
2023-02-18T03:58:36.160Z,78.83
2023-02-18T03:59:36.299Z,78.63
2023-02-18T04:00:36.461Z,78.63
2023-02-18T04:01:36.720Z,78.73
2023-02-18T04:02:36.841Z,78.73
2023-02-18T04:03:36.994Z,78.83
2023-02-18T04:04:37.205Z,78.83
2023-02-18T04:05:37.350Z,78.94
2023-02-18T04:06:37.515Z,79.14
2023-02-18T04:07:37.668Z,79.14
2023-02-18T04:08:37.832Z,79.25
2023-02-18T04:09:37.986Z,79.14
2023-02-18T04:10:38.154Z,79.14
2023-02-18T04:11:38.304Z,79.25
2023-02-18T04:12:38.466Z,79.35
2023-02-18T04:13:38.622Z,79.14
2023-02-18T04:14:38.785Z,79.04
2023-02-18T04:15:38.932Z,79.14
2023-02-18T04:16:39.125Z,79.14
2023-02-18T04:17:39.263Z,79.35
2023-02-18T04:18:39.432Z,79.35
2023-02-18T04:19:39.590Z,79.35
2023-02-18T04:20:39.756Z,79.04
2023-02-18T04:21:39.909Z,78.94
2023-02-18T04:22:40.087Z,78.73
2023-02-18T04:23:40.246Z,78.83
2023-02-18T04:24:40.409Z,78.94
2023-02-18T04:25:40.571Z,78.83
2023-02-18T04:26:40.727Z,79.14
2023-02-18T04:27:40.879Z,79.14
2023-02-18T04:28:41.002Z,79.28
2023-02-18T04:29:41.187Z,79.35
2023-02-18T04:30:41.455Z,79.49
2023-02-18T04:31:41.523Z,79.59
2023-02-18T04:32:41.633Z,79.59
2023-02-18T04:33:41.741Z,79.59
2023-02-18T04:34:41.851Z,79.69
2023-02-18T04:35:42.182Z,79.69
2023-02-18T04:36:42.100Z,79.69
2023-02-18T04:37:42.251Z,79.80
2023-02-18T04:38:42.424Z,79.59
2023-02-18T04:39:42.602Z,79.59
2023-02-18T04:40:42.768Z,79.59
2023-02-18T04:41:42.921Z,79.59
2023-02-18T04:42:43.071Z,79.59
2023-02-18T04:43:43.231Z,79.69
2023-02-18T04:44:43.913Z,79.59
2023-02-18T04:45:43.492Z,79.69
2023-02-18T04:46:43.648Z,79.80
2023-02-18T04:47:43.798Z,79.69
2023-02-18T04:48:43.964Z,79.49
2023-02-18T04:49:44.112Z,79.49
2023-02-18T04:50:44.287Z,79.49
2023-02-18T04:51:44.445Z,79.69
2023-02-18T04:52:44.601Z,79.59
2023-02-18T04:53:44.752Z,79.59
2023-02-18T04:54:44.927Z,79.49
2023-02-18T04:55:45.076Z,79.49
2023-02-18T04:56:45.241Z,79.80
2023-02-18T04:57:45.392Z,79.80
2023-02-18T04:58:45.565Z,79.69
2023-02-18T04:59:45.721Z,79.90
2023-02-18T05:00:45.922Z,80.11
2023-02-18T05:01:46.033Z,79.90
2023-02-18T05:02:46.164Z,79.90
2023-02-18T05:03:46.366Z,79.90
2023-02-18T05:04:46.362Z,79.69
2023-02-18T05:05:46.596Z,79.49
2023-02-18T05:06:46.771Z,79.28
2023-02-18T05:07:46.906Z,79.38
2023-02-18T05:08:47.070Z,79.35
2023-02-18T05:09:47.237Z,79.35
2023-02-18T05:10:47.392Z,79.25
2023-02-18T05:11:47.554Z,79.35
2023-02-18T05:12:47.702Z,79.14
2023-02-18T05:13:47.850Z,79.04
2023-02-18T05:14:48.011Z,79.14
2023-02-18T05:15:48.198Z,78.94
2023-02-18T05:16:48.356Z,78.94
2023-02-18T05:17:48.513Z,78.94
2023-02-18T05:18:48.682Z,78.94
2023-02-18T05:19:48.831Z,78.94
2023-02-18T05:20:49.010Z,78.94
2023-02-18T05:21:49.166Z,78.73
2023-02-18T05:22:49.343Z,78.83
2023-02-18T05:23:49.496Z,78.83
2023-02-18T05:24:49.651Z,78.59
2023-02-18T05:25:49.795Z,78.63
2023-02-18T05:26:49.952Z,78.49
2023-02-18T05:27:50.116Z,78.18
2023-02-18T05:28:50.258Z,78.18
2023-02-18T05:29:50.429Z,78.08
2023-02-18T05:30:50.632Z,78.18
2023-02-18T05:31:50.859Z,78.08
2023-02-18T05:32:50.942Z,77.97
2023-02-18T05:33:51.104Z,77.97
2023-02-18T05:34:51.252Z,77.97
2023-02-18T05:35:51.401Z,77.97
2023-02-18T05:36:51.554Z,77.97
2023-02-18T05:37:51.710Z,77.87
2023-02-18T05:38:51.858Z,77.87
2023-02-18T05:39:51.997Z,77.87
2023-02-18T05:40:52.154Z,77.76
2023-02-18T05:41:52.307Z,77.76
2023-02-18T05:42:52.464Z,77.35
2023-02-18T05:43:52.619Z,77.35
2023-02-18T05:44:52.774Z,77.45
2023-02-18T05:45:52.928Z,77.45
2023-02-18T05:46:53.094Z,77.35
2023-02-18T05:47:53.265Z,77.45
2023-02-18T05:48:53.431Z,77.01
2023-02-18T05:49:53.548Z,76.90
2023-02-18T05:50:53.744Z,77.01
2023-02-18T05:51:53.912Z,77.22
2023-02-18T05:52:54.091Z,77.42
2023-02-18T05:53:54.266Z,77.22
2023-02-18T05:54:54.462Z,77.01
2023-02-18T05:55:54.632Z,76.80
2023-02-18T05:56:54.838Z,76.80
2023-02-18T05:57:54.892Z,77.01
2023-02-18T05:58:55.071Z,77.11
2023-02-18T05:59:55.262Z,77.01
2023-02-18T06:00:55.414Z,77.01
2023-02-18T06:01:55.592Z,76.70
2023-02-18T06:02:55.788Z,76.80
2023-02-18T06:03:55.922Z,76.90
2023-02-18T06:04:56.111Z,76.70
2023-02-18T06:05:56.361Z,76.49
2023-02-18T06:06:56.481Z,76.59
2023-02-18T06:07:56.886Z,76.80
2023-02-18T06:08:56.827Z,76.70
2023-02-18T06:09:56.998Z,76.80
2023-02-18T06:10:57.146Z,76.90
2023-02-18T06:11:57.303Z,76.59
2023-02-18T06:12:57.456Z,76.80
2023-02-18T06:13:57.613Z,76.70
2023-02-18T06:14:57.787Z,76.70
2023-02-18T06:15:57.967Z,76.59
2023-02-18T06:16:58.079Z,76.59
2023-02-18T06:17:58.231Z,77.01
2023-02-18T06:18:58.398Z,76.80
2023-02-18T06:19:58.562Z,76.80
2023-02-18T06:20:58.724Z,76.90
2023-02-18T06:21:58.865Z,77.11
2023-02-18T06:22:59.014Z,77.01
2023-02-18T06:23:59.172Z,77.11
2023-02-18T06:24:59.328Z,77.11
2023-02-18T06:25:59.467Z,76.90
2023-02-18T06:26:59.616Z,77.22
2023-02-18T06:27:59.750Z,77.31
2023-02-18T06:28:59.911Z,77.01
2023-02-18T06:30:00.162Z,77.22
2023-02-18T06:31:00.414Z,77.31
2023-02-18T06:32:00.437Z,77.42
2023-02-18T06:33:00.507Z,77.31
2023-02-18T06:34:00.669Z,77.42
2023-02-18T06:35:00.835Z,77.42
2023-02-18T06:36:00.976Z,77.52
2023-02-18T06:37:01.509Z,77.62
2023-02-18T06:38:01.221Z,77.52
2023-02-18T06:39:01.370Z,77.31
2023-02-18T06:40:01.535Z,77.73
2023-02-18T06:41:01.688Z,77.59
2023-02-18T06:42:01.838Z,77.83
2023-02-18T06:43:02.005Z,77.83
2023-02-18T06:44:02.153Z,77.80
2023-02-18T06:45:02.336Z,77.62
2023-02-18T06:46:02.478Z,77.69
2023-02-18T06:47:02.626Z,77.69
2023-02-18T06:48:02.778Z,77.59
2023-02-18T06:49:02.941Z,77.59
2023-02-18T06:50:03.093Z,77.59
2023-02-18T06:51:03.252Z,77.48
2023-02-18T06:52:03.395Z,77.48
2023-02-18T06:53:03.540Z,77.69
2023-02-18T06:54:03.680Z,77.69
2023-02-18T06:55:03.840Z,77.48
2023-02-18T06:56:04.010Z,77.48
2023-02-18T06:57:04.157Z,77.69
2023-02-18T06:58:04.326Z,77.38
2023-02-18T06:59:04.480Z,77.38
2023-02-18T07:00:04.642Z,77.28
2023-02-18T07:01:04.793Z,77.48
2023-02-18T07:02:04.943Z,77.38
2023-02-18T07:03:05.090Z,77.28
2023-02-18T07:04:05.293Z,77.18
2023-02-18T07:05:05.440Z,77.38
2023-02-18T07:06:05.606Z,77.38
2023-02-18T07:07:05.754Z,76.97
2023-02-18T07:08:05.897Z,76.87
2023-02-18T07:09:06.058Z,76.63
2023-02-18T07:10:06.219Z,76.73
2023-02-18T07:11:06.375Z,76.73
2023-02-18T07:12:06.528Z,76.53
2023-02-18T07:13:06.674Z,76.32
2023-02-18T07:14:08.343Z,76.42
2023-02-18T07:15:06.985Z,76.42
2023-02-18T07:16:07.552Z,76.93
2023-02-18T07:17:07.225Z,76.93
2023-02-18T07:18:07.376Z,76.83
2023-02-18T07:19:07.523Z,77.97
2023-02-18T07:20:07.696Z,77.76
2023-02-18T07:21:07.822Z,77.25
2023-02-18T07:22:08.119Z,77.35
2023-02-18T07:23:08.146Z,77.14
2023-02-18T07:24:08.305Z,77.14
2023-02-18T07:25:08.472Z,76.93
2023-02-18T07:26:09.027Z,77.04
2023-02-18T07:27:08.765Z,76.83
2023-02-18T07:28:08.946Z,76.73
2023-02-18T07:29:09.089Z,76.83
2023-02-18T07:30:09.380Z,77.14
2023-02-18T07:39:37.983Z,79.00
2023-02-18T07:43:13.430Z,80.02
2023-02-18T07:44:13.598Z,80.33
2023-02-18T07:47:09.551Z,80.65
2023-02-18T07:47:52.151Z,80.65
2023-02-18T07:48:52.181Z,80.54
2023-02-18T07:49:52.339Z,80.75
2023-02-18T07:50:52.499Z,81.05
2023-02-18T07:51:52.700Z,81.26
2023-02-18T07:52:52.957Z,81.47
2023-02-18T07:53:53.037Z,82.19
2023-02-18T07:54:53.200Z,82.29
2023-02-18T07:58:32.562Z,83.12
2023-02-18T07:58:56.029Z,83.42
2023-02-18T07:59:56.163Z,84.25
2023-02-18T08:00:56.329Z,84.25
2023-02-18T08:01:56.521Z,84.59
2023-02-18T08:02:56.683Z,84.70
2023-02-18T08:03:56.893Z,85.52
2023-02-18T08:04:57.042Z,85.63
2023-02-18T08:05:57.206Z,85.94
2023-02-18T08:06:57.360Z,86.04
2023-02-18T08:07:57.527Z,85.73
2023-02-18T08:08:57.701Z,85.83
2023-02-18T08:09:57.870Z,85.83
2023-02-18T08:10:59.633Z,85.94
2023-02-18T08:11:58.230Z,86.04
2023-02-18T08:12:58.452Z,86.45
2023-02-18T08:13:58.503Z,85.94
2023-02-18T08:14:59.421Z,85.83
2023-02-18T08:15:58.877Z,85.94
2023-02-18T08:16:59.011Z,86.55
2023-02-18T08:17:59.077Z,86.15
2023-02-18T08:18:59.248Z,86.35
2023-02-18T08:19:59.408Z,86.15
2023-02-18T08:20:59.590Z,86.66
2023-02-18T08:21:59.744Z,86.97
2023-02-18T08:22:59.907Z,86.15
2023-02-18T08:24:00.115Z,87.27
2023-02-18T08:25:00.269Z,87.17
2023-02-18T08:26:00.450Z,87.59
2023-02-18T08:27:01.684Z,87.48
2023-02-18T08:28:00.759Z,87.69
2023-02-18T08:29:00.974Z,88.51
2023-02-18T08:30:01.077Z,88.56
2023-02-18T08:31:01.337Z,88.76
2023-02-18T08:32:01.374Z,89.17
2023-02-18T08:33:01.525Z,90.31
2023-02-18T08:34:01.677Z,90.72
2023-02-18T08:35:01.842Z,90.10
2023-02-18T08:36:02.004Z,90.72
2023-02-18T08:37:02.170Z,90.86
2023-02-18T08:38:02.371Z,91.28
2023-02-18T08:39:02.545Z,92.00
2023-02-18T08:40:02.682Z,91.79
2023-02-18T08:41:02.852Z,91.79
2023-02-18T08:42:03.041Z,92.51
2023-02-18T08:43:03.202Z,92.51
2023-02-18T08:44:03.365Z,92.31
2023-02-18T08:45:03.542Z,92.61
2023-02-18T08:46:03.758Z,93.44
2023-02-18T08:47:03.903Z,93.13
2023-02-18T08:48:16.597Z,93.65
2023-02-18T08:49:05.138Z,93.65
2023-02-18T08:50:04.297Z,94.27
2023-02-18T08:51:06.036Z,94.47
2023-02-18T08:52:04.665Z,94.68
2023-02-18T08:53:04.834Z,95.40
2023-02-18T08:54:05.026Z,95.71
2023-02-18T08:55:05.206Z,95.55
2023-02-18T08:56:05.385Z,95.65
2023-02-18T08:57:05.553Z,96.06
2023-02-18T08:58:05.727Z,96.48
2023-02-18T08:59:05.912Z,96.17
2023-02-18T09:00:06.106Z,95.86
2023-02-18T09:01:06.563Z,96.27
2023-02-18T09:02:06.463Z,96.89
2023-02-18T09:03:06.660Z,96.79
2023-02-18T09:04:06.847Z,96.79
2023-02-18T09:05:07.007Z,96.99
2023-02-18T09:06:07.180Z,97.41
2023-02-18T09:07:07.370Z,97.61
2023-02-18T09:08:07.534Z,97.72
2023-02-18T09:09:07.691Z,97.20
2023-02-18T09:10:07.857Z,97.41
2023-02-18T09:11:08.451Z,97.72
2023-02-18T09:12:08.172Z,97.92
2023-02-18T09:13:08.350Z,98.33
2023-02-18T09:14:08.520Z,98.33
2023-02-18T09:15:08.699Z,98.44
2023-02-18T09:16:08.996Z,98.44
2023-02-18T09:17:09.082Z,98.54
2023-02-18T09:18:09.265Z,98.33
2023-02-18T09:19:09.428Z,98.44
2023-02-18T09:20:09.629Z,98.60
2023-02-18T09:21:10.242Z,98.50
2023-02-18T09:22:17.054Z,98.50
2023-02-18T09:23:12.137Z,98.39
2023-02-18T09:24:10.408Z,98.29
2023-02-18T09:25:10.600Z,98.19
2023-02-18T09:26:10.776Z,97.88
2023-02-18T09:27:11.354Z,98.08
2023-02-18T09:28:11.132Z,98.23
2023-02-18T09:29:11.304Z,97.41
2023-02-18T09:30:11.495Z,97.92
2023-02-18T09:31:12.272Z,97.51
2023-02-18T09:32:14.545Z,97.82
2023-02-18T09:33:13.011Z,97.92
2023-02-18T09:34:12.165Z,98.13
2023-02-18T09:35:12.343Z,98.33
2023-02-18T09:36:12.597Z,98.33
2023-02-18T09:37:12.689Z,98.75
2023-02-18T09:38:12.890Z,99.06
2023-02-18T09:39:13.100Z,99.22
2023-02-18T09:40:15.368Z,98.85
2023-02-18T09:41:13.487Z,99.06
2023-02-18T09:42:13.555Z,98.96
2023-02-18T09:43:13.730Z,99.22
2023-02-18T09:44:13.907Z,99.99
2023-02-18T09:45:14.098Z,98.80
2023-02-18T09:46:14.324Z,98.60
2023-02-18T09:47:14.472Z,98.85
2023-02-18T09:48:14.643Z,99.22
2023-02-18T09:49:14.819Z,99.26
2023-02-18T09:50:14.995Z,99.63
2023-02-18T09:51:15.183Z,99.84
2023-02-18T09:52:15.367Z,99.47
2023-02-18T09:53:15.551Z,99.47
2023-02-18T09:54:15.725Z,99.37
2023-02-18T09:55:15.905Z,99.78
2023-02-18T09:56:16.082Z,99.99
2023-02-18T09:57:16.265Z,99.99
2023-02-18T09:58:16.452Z,99.99
2023-02-18T09:59:16.639Z,99.99
2023-02-18T10:00:16.813Z,99.99
2023-02-18T10:01:17.020Z,99.99
2023-02-18T10:02:17.185Z,99.99
2023-02-18T10:03:17.372Z,99.99
2023-02-18T10:04:17.544Z,99.99
2023-02-18T10:05:17.719Z,99.99
2023-02-18T10:06:17.929Z,99.99
2023-02-18T10:07:18.334Z,99.99
2023-02-18T10:08:18.281Z,99.99
2023-02-18T10:09:18.462Z,99.99
2023-02-18T10:10:18.646Z,99.99
2023-02-18T10:11:18.800Z,99.99
2023-02-18T10:12:18.966Z,99.99
2023-02-18T10:13:19.150Z,99.99
2023-02-18T10:14:19.314Z,99.99
2023-02-18T10:15:19.472Z,99.99
2023-02-18T10:16:19.734Z,99.99
2023-02-18T10:17:19.796Z,99.99
2023-02-18T10:18:19.966Z,99.99
2023-02-18T10:19:20.130Z,99.99
2023-02-18T10:20:20.361Z,99.99
2023-02-18T10:21:20.425Z,99.99
2023-02-18T10:22:20.621Z,99.99
2023-02-18T10:23:20.770Z,99.99
2023-02-18T10:24:20.973Z,99.99
2023-02-18T10:25:21.153Z,99.99
2023-02-18T10:26:21.331Z,99.99
2023-02-18T10:27:21.496Z,99.99
2023-02-18T10:28:21.692Z,99.99
2023-02-18T10:29:22.182Z,99.99
2023-02-18T10:30:22.225Z,99.99
2023-02-18T10:31:22.274Z,99.99
2023-02-18T10:32:22.352Z,99.99
2023-02-18T10:33:22.568Z,99.99
2023-02-18T10:34:22.771Z,99.99
2023-02-18T10:35:22.936Z,99.99
2023-02-18T10:36:23.107Z,99.99
2023-02-18T10:37:23.277Z,99.99
2023-02-18T10:38:23.448Z,99.99
2023-02-18T10:39:23.617Z,99.99
2023-02-18T10:40:23.771Z,99.99
2023-02-18T10:41:23.975Z,99.99
2023-02-18T10:42:24.146Z,99.99
2023-02-18T10:43:24.305Z,99.99
2023-02-18T10:44:24.495Z,99.99
2023-02-18T10:45:24.648Z,99.99
2023-02-18T10:46:24.850Z,99.99
2023-02-18T10:47:25.014Z,99.99
2023-02-18T10:48:25.202Z,99.99
2023-02-18T10:49:25.367Z,99.99
2023-02-18T10:50:25.533Z,99.99
2023-02-18T10:51:25.715Z,99.99
2023-02-18T10:52:25.887Z,99.99
2023-02-18T10:53:26.061Z,99.99
2023-02-18T10:54:26.213Z,99.99
2023-02-18T10:55:26.371Z,99.99
2023-02-18T10:56:26.619Z,99.99
2023-02-18T10:57:26.710Z,99.99
2023-02-18T10:58:26.921Z,99.99
2023-02-18T10:59:27.094Z,99.99
2023-02-18T11:00:27.324Z,99.99
2023-02-18T11:01:27.381Z,99.99
2023-02-18T11:02:27.543Z,99.99
2023-02-18T11:03:27.719Z,99.99
2023-02-18T11:04:27.912Z,99.99
2023-02-18T11:05:28.088Z,99.99
2023-02-18T11:06:28.316Z,99.99
2023-02-18T11:07:28.488Z,99.99
2023-02-18T11:08:28.668Z,99.99
2023-02-18T11:09:28.832Z,99.99
2023-02-18T11:10:29.010Z,99.99
2023-02-18T11:11:29.236Z,99.99
2023-02-18T11:12:29.347Z,99.99
2023-02-18T11:13:29.492Z,99.99
2023-02-18T11:14:29.682Z,99.99
2023-02-18T11:15:29.832Z,99.99
2023-02-18T11:16:30.052Z,99.99
2023-02-18T11:17:30.131Z,99.99
2023-02-18T11:18:30.286Z,99.99
2023-02-18T11:19:30.443Z,99.99
2023-02-18T11:20:30.606Z,99.99
2023-02-18T11:21:30.814Z,99.99
2023-02-18T11:22:31.023Z,99.99
2023-02-18T11:23:31.178Z,99.99
2023-02-18T11:24:31.348Z,99.99
2023-02-18T11:25:31.502Z,99.99
2023-02-18T11:26:31.673Z,99.99
2023-02-18T11:27:31.830Z,99.99
2023-02-18T11:28:32.008Z,99.99
2023-02-18T11:29:32.170Z,99.99
2023-02-18T11:30:32.358Z,99.99
2023-02-18T11:31:32.577Z,99.99
2023-02-18T11:32:32.637Z,99.99
2023-02-18T11:33:32.812Z,99.99
2023-02-18T11:34:32.980Z,99.99
2023-02-18T11:35:33.172Z,99.99
2023-02-18T11:36:33.368Z,99.99
2023-02-18T11:37:33.553Z,99.99
2023-02-18T11:38:33.709Z,99.99
2023-02-18T11:39:33.878Z,99.99
2023-02-18T11:40:34.053Z,99.99
2023-02-18T11:41:34.247Z,99.99
2023-02-18T11:42:34.441Z,99.99
2023-02-18T11:43:34.596Z,99.99
2023-02-18T11:44:34.777Z,99.99
2023-02-18T11:45:34.944Z,99.99
2023-02-18T11:46:35.170Z,99.99
2023-02-18T11:47:35.318Z,99.99
2023-02-18T11:48:35.478Z,99.99
2023-02-18T11:49:35.648Z,99.99
2023-02-18T11:50:35.888Z,99.99
2023-02-18T11:51:35.958Z,99.99
2023-02-18T11:52:36.068Z,99.99
2023-02-18T11:53:36.240Z,99.99
2023-02-18T11:54:36.402Z,99.99
2023-02-18T11:55:36.596Z,99.99
2023-02-18T11:56:36.765Z,99.99
2023-02-18T11:57:36.953Z,99.99
2023-02-18T11:58:37.107Z,99.99
2023-02-18T11:59:37.280Z,99.99
2023-02-18T12:00:37.448Z,99.99
2023-02-18T12:01:37.636Z,99.99
2023-02-18T12:02:37.818Z,99.99
2023-02-18T12:03:37.977Z,99.99
2023-02-18T12:04:38.179Z,99.99
2023-02-18T12:05:38.338Z,99.99
2023-02-18T12:06:38.552Z,99.99
2023-02-18T12:07:38.719Z,99.99
2023-02-18T12:08:38.894Z,99.99
2023-02-18T12:09:39.039Z,99.99
2023-02-18T12:10:39.219Z,99.99
2023-02-18T12:11:39.382Z,99.99
2023-02-18T12:12:39.581Z,99.99
2023-02-18T12:13:39.743Z,99.99
2023-02-18T12:14:39.854Z,99.99
2023-02-18T12:15:39.988Z,99.99
2023-02-18T12:16:40.254Z,99.99
2023-02-18T12:17:40.334Z,99.99
2023-02-18T12:18:42.621Z,99.99
2023-02-18T12:19:40.571Z,99.99
2023-02-18T12:20:40.751Z,99.99
2023-02-18T12:21:40.922Z,99.99
2023-02-18T12:22:41.095Z,99.99
2023-02-18T12:23:41.268Z,99.99
2023-02-18T12:24:41.433Z,99.99
2023-02-18T12:25:45.615Z,99.99
2023-02-18T12:26:41.776Z,99.99
2023-02-18T12:27:41.925Z,99.99
2023-02-18T12:28:42.084Z,99.99
2023-02-18T12:29:42.235Z,99.99
2023-02-18T12:30:42.404Z,99.99
2023-02-18T12:31:42.638Z,99.99
2023-02-18T12:32:42.703Z,99.99
2023-02-18T12:33:42.848Z,99.99
2023-02-18T12:34:43.029Z,99.99
2023-02-18T12:35:43.157Z,99.99
2023-02-18T12:36:43.449Z,99.99
2023-02-18T12:37:43.483Z,99.99
2023-02-18T12:38:43.662Z,99.99
2023-02-18T12:39:43.828Z,99.99
2023-02-18T12:40:43.973Z,99.99
2023-02-18T12:41:44.129Z,99.99
2023-02-18T12:42:44.284Z,99.99
2023-02-18T12:43:44.424Z,99.99
2023-02-18T12:44:45.515Z,99.99
2023-02-18T12:45:44.806Z,99.99
2023-02-18T12:46:44.962Z,99.99
2023-02-18T12:47:45.106Z,99.99
2023-02-18T12:48:45.262Z,99.99
2023-02-18T12:49:45.425Z,99.99
2023-02-18T12:50:45.581Z,99.99
2023-02-18T12:52:06.766Z,99.99
2023-02-18T12:52:45.816Z,99.99
2023-02-18T12:53:45.974Z,99.99
2023-02-18T12:54:46.111Z,99.99
2023-02-18T12:55:46.317Z,99.99
2023-02-18T12:56:46.465Z,99.99
2023-02-18T12:57:46.622Z,99.99
2023-02-18T12:58:46.776Z,99.99
2023-02-18T12:59:46.946Z,99.99
2023-02-18T13:00:47.329Z,99.99
2023-02-18T13:01:47.274Z,99.99
2023-02-18T13:02:47.437Z,99.99
2023-02-18T13:03:47.571Z,99.99
2023-02-18T13:04:47.713Z,99.99
2023-02-18T13:05:47.869Z,99.99
2023-02-18T13:06:48.057Z,99.99
2023-02-18T13:07:48.228Z,99.99
2023-02-18T13:08:48.385Z,99.99
2023-02-18T13:09:48.554Z,99.99